Time;durP1;ratioP1;P1;durP2;ratioP2;P2;SDS_P1;SDS_P2;PMS_P1;PMS_P2;Temp;Humidity;BMP_temperature;BMP_pressure;BME280_temperature;BME280_humidity;BME280_pressure;Samples;Min_cycle;Max_cycle;Signal;HPM_P1;HPM_P2
2023/09/10 00:00:15;;;;;;;2.95;2.75;;;14.20;99.90;;;;;;4193300;28;20051;-59
2023/09/10 00:02:35;;;;;;;2.50;2.40;;;14.10;99.90;;;;;;4196887;28;20271;-59
2023/09/10 00:04:55;;;;;;;3.10;3.00;;;14.00;99.90;;;;;;4192317;28;20397;-59
2023/09/10 00:07:16;;;;;;;3.85;3.72;;;13.70;99.90;;;;;;4195430;28;20043;-59
2023/09/10 00:09:36;;;;;;;4.45;4.30;;;13.90;99.90;;;;;;4193225;28;20044;-59
2023/09/10 00:11:56;;;;;;;3.33;3.22;;;13.90;99.90;;;;;;4192218;28;20076;-59
2023/09/10 00:14:16;;;;;;;2.47;2.28;;;13.90;99.90;;;;;;4192470;28;20078;-59
2023/09/10 00:16:36;;;;;;;6.18;3.00;;;13.90;99.90;;;;;;4192511;28;20040;-59
2023/09/10 00:18:56;;;;;;;3.30;3.20;;;14.00;99.90;;;;;;4191377;28;20052;-59
2023/09/10 00:21:16;;;;;;;3.58;3.38;;;13.90;99.90;;;;;;4192059;28;20307;-59
2023/09/10 00:23:36;;;;;;;3.05;2.85;;;13.80;99.90;;;;;;4192185;28;20044;-59
2023/09/10 00:25:56;;;;;;;3.95;3.72;;;13.70;99.90;;;;;;4191780;28;20047;-59
2023/09/10 00:28:17;;;;;;;4.50;4.32;;;13.70;99.90;;;;;;4190957;28;20139;-59
2023/09/10 00:30:37;;;;;;;4.10;3.85;;;13.70;99.90;;;;;;4194445;28;20040;-59
2023/09/10 00:32:57;;;;;;;3.22;3.13;;;13.60;99.90;;;;;;4194866;28;20075;-59
2023/09/10 00:35:17;;;;;;;3.83;3.72;;;13.50;99.90;;;;;;4191829;28;20075;-59
2023/09/10 00:37:38;;;;;;;3.30;3.20;;;13.40;99.90;;;;;;4193455;28;20087;-59
2023/09/10 00:39:58;;;;;;;4.88;4.68;;;13.30;99.90;;;;;;4191996;28;20056;-59
2023/09/10 00:42:18;;;;;;;3.58;3.47;;;13.10;99.90;;;;;;4191160;28;20409;-59
2023/09/10 00:44:40;;;;;;;3.65;3.25;;;13.00;99.90;;;;;;4190290;28;20087;-59
2023/09/10 00:47:00;;;;;;;4.25;3.95;;;12.90;99.90;;;;;;4192366;28;20040;-59
2023/09/10 00:49:21;;;;;;;3.53;3.42;;;12.90;99.90;;;;;;4190871;28;20083;-59
2023/09/10 00:51:41;;;;;;;4.32;4.22;;;12.80;99.90;;;;;;4190903;28;20358;-59
2023/09/10 00:54:01;;;;;;;4.32;4.13;;;12.90;99.90;;;;;;4191185;28;20083;-59
2023/09/10 00:56:21;;;;;;;4.68;4.47;;;12.70;99.90;;;;;;4189482;28;20052;-59
2023/09/10 00:58:42;;;;;;;4.63;4.25;;;12.70;99.90;;;;;;4191468;28;20048;-59
2023/09/10 01:01:03;;;;;;;4.13;3.78;;;12.60;99.90;;;;;;4190321;28;20052;-59
2023/09/10 01:03:25;;;;;;;4.50;4.30;;;12.60;99.90;;;;;;4191178;28;20279;-58
2023/09/10 01:05:45;;;;;;;7.40;4.10;;;12.60;99.90;;;;;;4189530;28;20087;-58
2023/09/10 01:08:05;;;;;;;4.13;4.03;;;12.60;99.90;;;;;;4192409;28;20086;-58
2023/09/10 01:10:43;;;;;;;3.47;3.38;;;12.60;99.90;;;;;;4189443;28;20324;-58
2023/09/10 01:13:20;;;;;;;3.05;2.95;;;12.60;99.90;;;;;;4191888;28;20040;-58
2023/09/10 01:15:53;;;;;;;4.93;3.83;;;12.70;99.90;;;;;;4192804;28;20268;-58
2023/09/10 01:18:41;;;;;;;3.45;3.28;;;12.70;99.90;;;;;;4189411;28;20047;-59
2023/09/10 01:21:30;;;;;;;2.90;2.80;;;12.80;99.90;;;;;;4191052;28;20090;-59
2023/09/10 01:23:59;;;;;;;3.72;3.53;;;12.80;99.90;;;;;;4190311;28;20069;-59
2023/09/10 01:26:19;;;;;;;3.15;2.95;;;12.90;99.90;;;;;;4189877;28;20058;-59
2023/09/10 01:28:39;;;;;;;3.53;3.42;;;12.90;99.90;;;;;;4192838;28;20039;-59
2023/09/10 01:30:59;;;;;;;2.60;2.45;;;12.80;99.90;;;;;;4192218;28;20048;-59
2023/09/10 01:33:35;;;;;;;3.63;3.15;;;12.80;99.90;;;;;;4191326;28;20051;-59
2023/09/10 01:36:40;;;;;;;2.97;2.67;;;12.90;99.90;;;;;;4189838;28;20090;-58
2023/09/10 01:39:12;;;;;;;2.75;2.65;;;12.80;99.90;;;;;;4155597;28;20053;-59
2023/09/10 01:41:33;;;;;;;2.65;2.15;;;12.70;99.90;;;;;;4155393;28;20133;-59
2023/09/10 01:43:53;;;;;;;3.40;3.10;;;12.70;99.90;;;;;;4161895;28;20169;-59
2023/09/10 01:46:14;;;;;;;11.88;3.55;;;12.70;99.90;;;;;;4158659;28;20153;-59
2023/09/10 01:48:35;;;;;;;2.58;2.47;;;12.70;99.90;;;;;;4156327;28;20397;-59
2023/09/10 01:50:55;;;;;;;3.65;3.38;;;12.60;99.90;;;;;;4157279;28;20379;-59
2023/09/10 01:53:16;;;;;;;3.60;3.33;;;12.40;99.90;;;;;;4156090;28;20152;-59
2023/09/10 01:55:36;;;;;;;2.65;2.45;;;12.30;99.90;;;;;;4155320;28;20089;-59
2023/09/10 01:57:56;;;;;;;3.63;3.53;;;12.40;99.90;;;;;;4155430;28;20261;-59
2023/09/10 02:00:16;;;;;;;3.30;2.60;;;12.40;99.90;;;;;;4154440;28;20091;-59
2023/09/10 02:02:37;;;;;;;3.13;2.92;;;12.40;99.90;;;;;;4155420;28;20103;-58
2023/09/10 02:04:57;;;;;;;2.45;2.35;;;12.50;99.90;;;;;;4157187;28;20232;-59
2023/09/10 02:07:17;;;;;;;3.35;3.35;;;12.40;99.90;;;;;;4159175;28;20456;-59
2023/09/10 02:09:37;;;;;;;2.42;2.42;;;12.40;99.90;;;;;;4160760;28;20084;-59
2023/09/10 02:11:57;;;;;;;2.92;2.83;;;12.40;99.90;;;;;;4154113;28;20271;-58
2023/09/10 02:14:17;;;;;;;3.78;3.10;;;12.30;99.90;;;;;;4160861;28;20268;-58
2023/09/10 02:16:37;;;;;;;3.25;3.15;;;12.40;99.90;;;;;;4191721;28;20366;-59
2023/09/10 02:18:57;;;;;;;2.80;2.72;;;12.30;99.90;;;;;;4189621;28;20201;-59
2023/09/10 02:21:16;;;;;;;2.60;2.60;;;12.20;99.90;;;;;;4189870;28;20071;-59
2023/09/10 02:23:42;;;;;;;3.10;2.90;;;12.20;99.90;;;;;;4188283;28;20060;-59
2023/09/10 02:26:02;;;;;;;3.35;3.25;;;12.40;99.90;;;;;;4190051;28;20120;-59
2023/09/10 02:28:24;;;;;;;3.03;2.92;;;12.30;99.90;;;;;;4188901;28;20044;-59
2023/09/10 02:30:44;;;;;;;3.00;2.78;;;12.40;99.90;;;;;;4190104;28;20370;-59
2023/09/10 02:33:04;;;;;;;3.28;3.17;;;12.30;99.90;;;;;;4189893;28;20132;-59
2023/09/10 02:35:24;;;;;;;3.47;3.33;;;12.30;99.90;;;;;;4190816;28;20383;-59
2023/09/10 02:37:44;;;;;;;2.63;2.53;;;12.30;99.90;;;;;;4190223;28;20139;-59
2023/09/10 02:40:07;;;;;;;2.88;2.78;;;12.40;99.90;;;;;;4191221;28;20052;-58
2023/09/10 02:42:26;;;;;;;4.07;3.87;;;12.40;99.90;;;;;;4189611;28;20244;-59
2023/09/10 02:44:47;;;;;;;2.33;2.33;;;12.40;99.90;;;;;;4189740;28;20396;-58
2023/09/10 02:47:06;;;;;;;3.35;3.15;;;12.20;99.90;;;;;;4190590;28;20118;-59
2023/09/10 02:49:26;;;;;;;3.17;3.08;;;12.10;99.90;;;;;;4188731;28;20044;-59
2023/09/10 02:51:48;;;;;;;3.75;3.65;;;12.00;99.90;;;;;;4188882;28;20039;-59
2023/09/10 02:54:08;;;;;;;2.88;2.78;;;11.90;99.90;;;;;;4190514;28;20056;-59
2023/09/10 02:56:28;;;;;;;3.95;3.85;;;11.80;99.90;;;;;;4191213;28;20051;-59
2023/09/10 02:58:47;;;;;;;3.28;3.17;;;11.70;99.90;;;;;;4192601;28;20371;-58
2023/09/10 03:01:07;;;;;;;3.83;3.72;;;11.90;99.90;;;;;;4190952;28;20083;-59
2023/09/10 03:03:27;;;;;;;2.60;2.60;;;11.90;99.90;;;;;;4192005;28;20087;-58
2023/09/10 03:05:48;;;;;;;3.40;3.30;;;11.90;99.90;;;;;;4191893;28;20248;-59
2023/09/10 03:08:08;;;;;;;3.92;3.67;;;11.80;99.90;;;;;;4191244;28;20401;-59
2023/09/10 03:10:28;;;;;;;3.83;3.72;;;11.80;99.90;;;;;;4191294;28;20059;-59
2023/09/10 03:12:48;;;;;;;4.20;3.85;;;11.90;99.90;;;;;;4190009;28;20052;-59
2023/09/10 03:15:09;;;;;;;3.88;3.72;;;11.80;99.90;;;;;;4189835;28;20406;-59
2023/09/10 03:17:29;;;;;;;4.32;4.13;;;11.60;99.90;;;;;;4189448;28;20044;-59
2023/09/10 03:19:49;;;;;;;4.20;3.97;;;11.60;99.90;;;;;;4187742;28;20371;-59
2023/09/10 03:22:09;;;;;;;4.18;3.90;;;11.50;99.90;;;;;;4195512;28;20086;-59
2023/09/10 03:24:33;;;;;;;3.60;3.47;;;11.60;99.90;;;;;;4190288;28;20406;-59
2023/09/10 03:26:52;;;;;;;;;;;11.50;99.90;;;;;;4194176;28;20040;-58
2023/09/10 03:29:12;;;;;;;3.83;3.70;;;11.50;99.90;;;;;;4191087;28;19938;-59
2023/09/10 03:31:32;;;;;;;3.35;3.25;;;11.50;99.90;;;;;;4191662;28;20082;-59
2023/09/10 03:33:52;;;;;;;3.40;3.30;;;11.50;99.90;;;;;;4192178;28;20095;-59
2023/09/10 03:36:12;;;;;;;4.22;4.13;;;11.50;99.90;;;;;;4190416;28;20143;-58
2023/09/10 03:38:33;;;;;;;3.97;3.63;;;11.60;99.90;;;;;;4190063;28;20075;-59
2023/09/10 03:40:53;;;;;;;3.80;3.70;;;11.60;99.90;;;;;;4189725;28;20075;-59
2023/09/10 03:43:13;;;;;;;3.85;3.75;;;11.60;99.90;;;;;;4188025;28;20387;-58
2023/09/10 03:45:33;;;;;;;4.60;4.40;;;11.50;99.90;;;;;;4193052;28;20044;-58
2023/09/10 03:47:53;;;;;;;4.57;4.45;;;11.50;99.90;;;;;;4191920;28;20052;-59
2023/09/10 03:50:15;;;;;;;4.15;3.90;;;11.50;99.90;;;;;;4191460;28;20119;-59
2023/09/10 03:52:35;;;;;;;4.38;4.28;;;11.50;99.90;;;;;;4191840;28;20056;-59
2023/09/10 03:54:54;;;;;;;3.88;3.58;;;11.50;99.90;;;;;;4191920;28;20052;-58
2023/09/10 03:57:14;;;;;;;4.28;4.18;;;11.40;99.90;;;;;;4192100;28;20040;-59
2023/09/10 03:59:34;;;;;;;4.20;4.10;;;11.40;99.90;;;;;;4192147;28;20047;-58
2023/09/10 04:01:58;;;;;;;5.35;5.07;;;11.30;99.90;;;;;;4192434;28;20052;-59
2023/09/10 04:04:18;;;;;;;4.93;4.72;;;11.20;99.90;;;;;;4192585;28;20106;-59
2023/09/10 04:06:38;;;;;;;4.65;4.47;;;11.20;99.90;;;;;;4192266;28;20052;-58
2023/09/10 04:08:59;;;;;;;4.15;4.05;;;11.10;99.90;;;;;;4190263;28;20063;-59
2023/09/10 04:11:19;;;;;;;5.20;5.10;;;11.10;99.90;;;;;;4192384;28;20036;-58
2023/09/10 04:13:38;;;;;;;3.75;3.65;;;11.00;99.90;;;;;;4192047;28;20043;-59
2023/09/10 04:15:59;;;;;;;4.30;4.20;;;11.00;99.90;;;;;;4192040;28;20060;-58
2023/09/10 04:18:19;;;;;;;5.07;4.68;;;11.00;99.90;;;;;;4190773;28;20044;-58
2023/09/10 04:20:39;;;;;;;5.30;4.85;;;11.00;99.90;;;;;;4192354;28;20082;-59
2023/09/10 04:22:58;;;;;;;4.80;4.63;;;11.00;99.90;;;;;;4194234;28;20048;-59
2023/09/10 04:25:18;;;;;;;4.75;4.38;;;11.00;99.90;;;;;;4191549;28;20099;-59
2023/09/10 04:27:39;;;;;;;5.30;5.20;;;11.00;99.90;;;;;;4192226;28;20067;-59
2023/09/10 04:29:58;;;;;;;3.70;3.53;;;11.20;99.90;;;;;;4192310;28;20047;-59
2023/09/10 04:32:19;;;;;;;3.22;3.13;;;11.20;99.90;;;;;;4191349;28;20128;-59
2023/09/10 04:34:39;;;;;;;4.00;2.90;;;11.20;99.90;;;;;;4190348;28;20263;-59
2023/09/10 04:36:59;;;;;;;2.90;2.83;;;11.30;99.90;;;;;;4192523;28;20040;-59
2023/09/10 04:39:19;;;;;;;2.70;2.70;;;11.30;99.90;;;;;;4192073;28;20459;-59
2023/09/10 04:41:39;;;;;;;3.30;3.20;;;11.30;99.90;;;;;;4192407;28;20125;-58
2023/09/10 04:43:59;;;;;;;3.53;3.42;;;11.30;99.90;;;;;;4191286;28;20044;-59
2023/09/10 04:46:19;;;;;;;4.43;4.32;;;11.10;99.90;;;;;;4191348;28;20056;-59
2023/09/10 04:48:39;;;;;;;3.28;3.17;;;11.10;99.90;;;;;;4191237;28;20084;-59
2023/09/10 04:51:00;;;;;;;7.10;4.70;;;11.10;99.90;;;;;;4193868;28;20098;-59
2023/09/10 04:53:20;;;;;;;3.63;3.42;;;11.30;99.90;;;;;;4191796;28;20056;-59
2023/09/10 04:55:41;;;;;;;3.65;3.53;;;11.30;99.90;;;;;;4191185;28;20151;-59
2023/09/10 04:58:01;;;;;;;4.43;4.30;;;11.20;99.90;;;;;;4191132;28;20044;-59
2023/09/10 05:00:21;;;;;;;3.15;3.05;;;11.10;99.90;;;;;;4191596;28;20100;-58
2023/09/10 05:02:41;;;;;;;4.47;4.18;;;11.20;99.90;;;;;;4192089;28;20232;-59
2023/09/10 05:05:05;;;;;;;4.27;4.03;;;11.20;99.90;;;;;;4192716;28;20048;-58
2023/09/10 05:07:25;;;;;;;4.15;3.75;;;11.10;99.90;;;;;;4191862;28;20325;-59
2023/09/10 05:09:45;;;;;;;4.25;4.15;;;11.10;99.90;;;;;;4191833;28;20059;-58
2023/09/10 05:12:05;;;;;;;4.82;4.72;;;11.00;99.90;;;;;;4190537;28;20087;-59
2023/09/10 05:14:26;;;;;;;3.33;3.22;;;11.00;99.90;;;;;;4190634;28;20113;-59
2023/09/10 05:16:47;;;;;;;3.70;3.60;;;11.10;99.90;;;;;;4191757;28;20106;-58
2023/09/10 05:19:07;;;;;;;3.78;3.47;;;11.10;99.90;;;;;;4189689;28;20240;-58
2023/09/10 05:21:26;;;;;;;3.15;2.55;;;11.10;99.90;;;;;;4190488;28;20086;-58
2023/09/10 05:23:46;;;;;;;3.97;3.85;;;11.20;99.90;;;;;;4190273;28;20051;-58
2023/09/10 05:26:05;;;;;;;3.97;3.88;;;11.30;99.90;;;;;;4190590;28;20055;-58
2023/09/10 05:28:26;;;;;;;4.35;4.15;;;11.20;99.90;;;;;;4189914;28;20271;-58
2023/09/10 05:30:46;;;;;;;2.90;2.80;;;11.10;99.90;;;;;;4191049;28;20044;-58
2023/09/10 05:33:05;;;;;;;3.10;2.88;;;11.30;99.90;;;;;;4190755;28;20047;-58
2023/09/10 05:35:25;;;;;;;4.07;3.92;;;11.30;99.90;;;;;;4190893;28;20112;-59
2023/09/10 05:37:45;;;;;;;2.88;2.78;;;11.40;99.90;;;;;;4191375;28;20143;-58
2023/09/10 05:40:06;;;;;;;2.42;2.42;;;11.40;99.90;;;;;;4191464;28;20087;-59
2023/09/10 05:42:26;;;;;;;3.15;3.13;;;11.40;99.90;;;;;;4189655;28;20056;-59
2023/09/10 05:44:51;;;;;;;2.75;2.65;;;11.50;99.90;;;;;;4190415;28;20051;-58
2023/09/10 05:47:11;;;;;;;2.95;2.88;;;11.50;99.90;;;;;;4195069;28;20384;-59
2023/09/10 05:49:33;;;;;;;3.08;2.92;;;11.50;99.90;;;;;;4190873;28;20130;-59
2023/09/10 05:51:53;;;;;;;3.33;3.10;;;11.50;99.90;;;;;;4192596;28;20044;-59
2023/09/10 05:54:12;;;;;;;3.58;3.22;;;11.50;99.90;;;;;;4192066;28;20366;-58
2023/09/10 05:56:35;;;;;;;4.55;4.28;;;11.40;99.90;;;;;;4191902;28;20398;-58
2023/09/10 05:58:55;;;;;;;4.43;4.18;;;11.40;99.90;;;;;;4193562;28;20047;-58
2023/09/10 06:01:15;;;;;;;3.92;3.72;;;11.30;99.90;;;;;;4192529;28;20066;-59
2023/09/10 06:03:35;;;;;;;4.32;4.22;;;11.30;99.90;;;;;;4191290;28;20109;-58
2023/09/10 06:05:56;;;;;;;3.40;3.30;;;11.40;99.90;;;;;;4191510;28;20048;-58
2023/09/10 06:08:19;;;;;;;3.85;3.38;;;11.50;99.90;;;;;;4190355;28;20091;-59
2023/09/10 06:10:39;;;;;;;3.58;3.38;;;11.50;99.90;;;;;;4189945;28;20052;-58
2023/09/10 06:12:59;;;;;;;3.65;3.55;;;11.60;99.90;;;;;;4190077;28;20048;-58
2023/09/10 06:15:19;;;;;;;3.00;2.90;;;11.80;99.90;;;;;;4188176;28;20051;-59
2023/09/10 06:17:40;;;;;;;3.67;3.58;;;11.80;99.90;;;;;;4192208;28;20079;-59
2023/09/10 06:20:00;;;;;;;4.30;4.20;;;11.90;99.90;;;;;;4191248;28;20086;-56
2023/09/10 06:22:20;;;;;;;3.80;3.60;;;12.10;99.90;;;;;;4193899;28;20101;-56
2023/09/10 06:24:40;;;;;;;3.78;3.45;;;12.10;99.90;;;;;;4190718;28;20083;-56
2023/09/10 06:26:59;;;;;;;4.20;4.10;;;12.20;99.90;;;;;;4189883;28;20128;-56
2023/09/10 06:29:19;;;;;;;3.17;3.00;;;12.30;99.90;;;;;;4193196;28;20060;-56
2023/09/10 06:31:39;;;;;;;2.47;2.40;;;12.40;99.90;;;;;;4190599;28;20044;-55
2023/09/10 06:33:59;;;;;;;2.92;2.83;;;12.50;99.90;;;;;;4191790;28;20047;-56
2023/09/10 06:36:20;;;;;;;2.92;2.50;;;12.60;99.90;;;;;;4191319;28;20082;-56
2023/09/10 06:38:41;;;;;;;3.08;2.97;;;12.70;99.90;;;;;;4187701;28;20044;-56
2023/09/10 06:41:01;;;;;;;3.65;3.35;;;12.90;99.90;;;;;;4189525;28;20040;-56
2023/09/10 06:43:21;;;;;;;5.28;3.13;;;13.10;99.90;;;;;;4189833;28;20157;-56
2023/09/10 06:45:43;;;;;;;11.90;3.38;;;13.20;99.90;;;;;;4192790;28;20101;-56
2023/09/10 06:48:03;;;;;;;11.48;3.83;;;13.30;99.90;;;;;;4192155;28;20232;-56
2023/09/10 06:50:23;;;;;;;7.05;3.63;;;13.50;99.90;;;;;;4189446;28;20105;-56
2023/09/10 06:52:43;;;;;;;8.60;3.65;;;13.70;99.90;;;;;;4188819;28;20108;-56
2023/09/10 06:55:03;;;;;;;14.18;4.65;;;13.80;99.90;;;;;;4189646;28;20048;-56
2023/09/10 06:57:23;;;;;;;9.95;4.40;;;14.00;99.90;;;;;;4188962;28;20044;-56
2023/09/10 06:59:43;;;;;;;7.18;3.53;;;14.20;99.90;;;;;;4189860;28;20051;-56
2023/09/10 07:02:04;;;;;;;8.77;2.92;;;14.30;99.90;;;;;;4188911;28;20094;-56
2023/09/10 07:04:25;;;;;;;9.57;3.13;;;14.40;99.90;;;;;;4187733;28;20283;-56
2023/09/10 07:06:46;;;;;;;9.20;3.47;;;14.50;99.90;;;;;;4189090;28;20052;-55
2023/09/10 07:09:07;;;;;;;11.57;3.10;;;14.70;99.90;;;;;;4189170;28;20048;-56
2023/09/10 07:11:27;;;;;;;6.55;2.38;;;14.80;99.90;;;;;;4188431;28;20043;-56
2023/09/10 07:13:47;;;;;;;7.05;3.13;;;15.00;99.90;;;;;;4191140;28;20366;-56
2023/09/10 07:16:07;;;;;;;2.88;2.67;;;15.20;99.90;;;;;;4190663;28;20060;-56
2023/09/10 07:18:32;;;;;;;4.30;3.38;;;15.30;99.90;;;;;;4192110;28;20236;-56
2023/09/10 07:20:52;;;;;;;3.65;3.30;;;15.50;99.90;;;;;;4192543;28;20362;-56
2023/09/10 07:23:12;;;;;;;1.80;1.67;;;15.60;99.90;;;;;;4194558;28;20244;-56
2023/09/10 07:25:32;;;;;;;1.85;1.85;;;15.80;99.90;;;;;;4193241;28;20282;-56
2023/09/10 07:27:52;;;;;;;3.22;2.05;;;16.00;99.90;;;;;;4193147;28;20055;-56
2023/09/10 07:30:12;;;;;;;1.75;1.67;;;16.20;99.90;;;;;;4192911;28;20112;-56
2023/09/10 07:32:32;;;;;;;1.80;1.70;;;16.40;99.90;;;;;;4191841;28;20071;-56
2023/09/10 07:34:52;;;;;;;2.70;2.08;;;16.60;99.90;;;;;;4193614;28;20098;-56
2023/09/10 07:37:12;;;;;;;1.85;1.85;;;16.90;99.90;;;;;;4192019;28;20240;-56
2023/09/10 07:39:32;;;;;;;1.70;1.60;;;17.10;99.90;;;;;;4192101;28;20259;-56
2023/09/10 07:41:52;;;;;;;2.78;1.77;;;17.30;99.90;;;;;;4196317;28;20287;-56
2023/09/10 07:44:13;;;;;;;1.92;1.88;;;17.50;99.90;;;;;;4193503;28;20358;-56
2023/09/10 07:46:34;;;;;;;1.63;1.52;;;17.50;99.90;;;;;;4195410;28;20063;-57
2023/09/10 07:48:54;;;;;;;1.75;1.65;;;17.90;99.00;;;;;;4194395;28;20118;-56
2023/09/10 07:51:14;;;;;;;1.25;1.25;;;18.00;98.40;;;;;;4192150;28;20043;-56
2023/09/10 07:53:33;;;;;;;3.30;1.55;;;18.10;99.10;;;;;;4192566;28;20103;-56
2023/09/10 07:55:54;;;;;;;4.95;1.45;;;18.30;99.10;;;;;;4192395;28;20106;-56
2023/09/10 07:58:14;;;;;;;1.63;1.42;;;18.60;97.80;;;;;;4192550;28;20082;-56
2023/09/10 08:00:36;;;;;;;5.45;2.08;;;18.90;98.30;;;;;;4193792;28;20056;-56
2023/09/10 08:02:57;;;;;;;3.15;2.20;;;19.00;97.80;;;;;;4192618;28;20094;-56
2023/09/10 08:05:17;;;;;;;3.05;1.35;;;19.20;96.80;;;;;;4191293;28;20056;-57
2023/09/10 08:07:37;;;;;;;4.88;1.50;;;19.30;96.90;;;;;;4191899;28;20082;-56
2023/09/10 08:09:57;;;;;;;4.07;2.08;;;19.70;96.40;;;;;;4190969;28;20087;-56
2023/09/10 08:12:17;;;;;;;7.40;1.58;;;19.70;95.90;;;;;;4194366;28;20112;-56
2023/09/10 08:14:38;;;;;;;3.75;1.48;;;19.90;95.80;;;;;;4193135;28;20055;-56
2023/09/10 08:16:59;;;;;;;3.17;1.50;;;20.20;95.40;;;;;;4193484;28;20044;-56
2023/09/10 08:19:19;;;;;;;2.25;1.30;;;20.30;94.60;;;;;;4190586;28;20056;-56
2023/09/10 08:21:39;;;;;;;2.90;2.03;;;20.50;95.00;;;;;;4191244;28;20048;-56
2023/09/10 08:23:59;;;;;;;1.95;1.83;;;20.60;94.90;;;;;;4191039;28;20279;-56
2023/09/10 08:26:19;;;;;;;6.20;1.63;;;20.90;94.40;;;;;;4191514;28;20236;-56
2023/09/10 08:28:39;;;;;;;10.73;2.00;;;21.00;94.70;;;;;;4190975;28;20048;-56
2023/09/10 08:31:00;;;;;;;8.52;1.50;;;21.10;94.90;;;;;;4190021;28;20044;-56
2023/09/10 08:33:21;;;;;;;9.57;1.80;;;21.40;94.60;;;;;;4191556;28;20245;-56
2023/09/10 08:35:46;;;;;;;2.63;1.98;;;21.40;94.30;;;;;;4191834;28;20236;-60
2023/09/10 08:38:06;;;;;;;3.33;1.40;;;21.50;93.50;;;;;;4190534;28;20271;-59
2023/09/10 08:40:26;;;;;;;2.13;1.42;;;21.60;94.10;;;;;;4191981;28;20167;-60
2023/09/10 08:42:55;;;;;;;5.18;1.58;;;21.80;94.00;;;;;;4192815;28;20064;-60
2023/09/10 08:45:15;;;;;;;5.07;1.45;;;22.10;93.50;;;;;;4192130;28;20112;-60
2023/09/10 08:47:43;;;;;;;5.07;1.70;;;22.30;94.10;;;;;;4191025;28;20105;-60
2023/09/10 08:50:13;;;;;;;2.38;1.27;;;22.80;93.50;;;;;;4191939;28;20218;-60
2023/09/10 08:52:36;;;;;;;4.10;1.65;;;22.80;93.00;;;;;;4191137;28;20040;-60
2023/09/10 08:54:57;;;;;;;6.55;2.13;;;23.10;92.90;;;;;;4194061;28;20086;-59
2023/09/10 08:57:17;;;;;;;5.35;1.33;;;23.50;94.20;;;;;;4204702;28;20078;-60
2023/09/10 08:59:38;;;;;;;8.35;1.42;;;23.80;92.40;;;;;;4192304;28;20236;-60
2023/09/10 09:01:58;;;;;;;1.33;1.23;;;23.70;91.30;;;;;;4191725;28;20052;-60
2023/09/10 09:04:20;;;;;;;4.53;1.00;;;23.70;91.10;;;;;;4190972;28;20082;-60
2023/09/10 09:06:43;;;;;;;3.92;1.20;;;23.90;92.10;;;;;;4189824;28;20259;-60
2023/09/10 09:09:07;;;;;;;1.17;1.05;;;24.10;91.50;;;;;;4192464;28;20122;-60
2023/09/10 09:11:28;;;;;;;1.60;1.20;;;24.30;91.40;;;;;;4190288;28;20052;-60
2023/09/10 09:13:50;;;;;;;4.38;1.05;;;24.50;91.10;;;;;;4191281;28;20059;-60
2023/09/10 09:16:11;;;;;;;2.85;0.95;;;24.70;91.10;;;;;;4190269;28;20048;-60
2023/09/10 09:18:33;;;;;;;1.13;1.00;;;25.00;90.40;;;;;;4195028;28;20044;-60
2023/09/10 09:20:56;;;;;;;;;;;25.30;90.90;;;;;;4192794;28;20102;-59
2023/09/10 09:23:27;;;;;;;0.97;0.97;;;25.40;90.60;;;;;;4190611;28;19984;-59
2023/09/10 09:25:49;;;;;;;0.97;0.97;;;25.70;89.80;;;;;;4192725;28;20313;-59
2023/09/10 09:28:09;;;;;;;2.63;0.90;;;25.80;88.00;;;;;;4190514;28;20090;-59
2023/09/10 09:30:30;;;;;;;1.15;1.00;;;26.00;88.30;;;;;;4191413;28;20111;-59
2023/09/10 09:32:51;;;;;;;1.00;0.90;;;26.40;88.20;;;;;;4189894;28;20420;-59
2023/09/10 09:35:11;;;;;;;1.00;1.00;;;26.50;86.90;;;;;;4190651;28;20083;-59
2023/09/10 09:37:32;;;;;;;0.93;0.82;;;26.50;84.20;;;;;;4191311;28;20362;-60
2023/09/10 09:39:52;;;;;;;1.13;0.95;;;26.50;83.60;;;;;;4189909;28;20370;-59
2023/09/10 09:42:14;;;;;;;0.93;0.80;;;26.70;82.60;;;;;;4194578;28;20162;-59
2023/09/10 09:44:33;;;;;;;1.02;0.80;;;27.20;85.60;;;;;;4191826;28;20048;-59
2023/09/10 09:46:57;;;;;;;0.80;0.80;;;27.50;83.50;;;;;;4193263;28;20047;-59
2023/09/10 09:49:18;;;;;;;0.90;0.90;;;27.80;80.60;;;;;;4192298;28;20043;-59
2023/09/10 09:51:40;;;;;;;0.88;0.88;;;27.90;79.90;;;;;;4190094;28;20112;-59
2023/09/10 09:54:01;;;;;;;0.70;0.70;;;28.20;83.10;;;;;;4189928;28;20052;-59
2023/09/10 09:56:21;;;;;;;1.58;0.80;;;28.40;79.70;;;;;;4203645;28;20074;-59
2023/09/10 09:58:43;;;;;;;1.23;0.80;;;28.10;78.40;;;;;;4190123;28;20120;-59
2023/09/10 10:01:03;;;;;;;0.95;0.80;;;27.80;77.10;;;;;;4189797;28;20351;-59
2023/09/10 10:03:24;;;;;;;0.90;0.70;;;27.90;77.60;;;;;;4189442;28;20056;-59
2023/09/10 10:05:47;;;;;;;3.20;0.82;;;28.10;79.40;;;;;;4189838;28;20378;-59
2023/09/10 10:08:07;;;;;;;0.90;0.80;;;28.10;78.30;;;;;;4191050;28;20090;-59
2023/09/10 10:10:27;;;;;;;1.98;0.70;;;28.70;78.20;;;;;;4189890;28;20052;-59
2023/09/10 10:12:50;;;;;;;1.88;0.70;;;28.70;77.10;;;;;;4189938;28;20055;-59
2023/09/10 10:15:11;;;;;;;0.98;0.80;;;28.80;76.10;;;;;;4190953;28;20051;-59
2023/09/10 10:17:31;;;;;;;0.90;0.90;;;28.80;75.70;;;;;;4190595;28;20109;-59
2023/09/10 10:19:52;;;;;;;1.00;0.80;;;28.70;75.90;;;;;;4191840;28;20360;-59
2023/09/10 10:22:13;;;;;;;0.80;0.80;;;29.00;76.60;;;;;;4191029;28;20043;-59
2023/09/10 10:24:34;;;;;;;0.73;0.70;;;29.10;75.50;;;;;;4190762;28;20225;-59
2023/09/10 10:26:55;;;;;;;0.70;0.70;;;29.30;76.50;;;;;;4191181;28;20130;-59
2023/09/10 10:29:17;;;;;;;1.40;0.80;;;29.60;73.80;;;;;;4188470;28;20122;-59
2023/09/10 10:31:40;;;;;;;1.17;0.70;;;30.10;72.60;;;;;;4189313;28;20044;-59
2023/09/10 10:34:05;;;;;;;2.60;0.77;;;29.80;71.80;;;;;;4189220;28;20086;-59
2023/09/10 10:36:47;;;;;;;0.73;0.70;;;29.80;74.50;;;;;;4192010;28;20047;-59
2023/09/10 10:39:10;;;;;;;1.53;0.60;;;29.70;73.30;;;;;;4192598;28;20040;-59
2023/09/10 10:41:34;;;;;;;1.40;0.70;;;29.80;72.90;;;;;;4190832;28;20482;-59
2023/09/10 10:44:24;;;;;;;1.60;0.60;;;29.80;71.20;;;;;;4191984;28;20108;-59
2023/09/10 10:46:45;;;;;;;0.88;0.70;;;30.20;75.10;;;;;;4190481;28;20394;-59
2023/09/10 10:49:07;;;;;;;0.65;0.65;;;30.50;70.90;;;;;;4191891;28;20251;-59
2023/09/10 10:51:31;;;;;;;0.70;0.70;;;30.20;68.40;;;;;;4190979;28;20096;-59
2023/09/10 10:54:10;;;;;;;3.40;0.70;;;30.10;69.70;;;;;;4188974;28;20044;-59
2023/09/10 10:56:30;;;;;;;0.60;0.60;;;30.70;71.60;;;;;;4189326;28;20056;-59
2023/09/10 10:58:50;;;;;;;0.98;0.65;;;30.80;67.90;;;;;;4189846;28;20064;-59
2023/09/10 11:01:13;;;;;;;1.55;0.70;;;30.30;71.80;;;;;;4189668;28;20071;-59
2023/09/10 11:03:34;;;;;;;1.60;0.70;;;29.90;71.10;;;;;;4191401;28;20056;-59
2023/09/10 11:06:04;;;;;;;1.30;0.70;;;29.70;67.00;;;;;;4191680;28;20262;-59
2023/09/10 11:08:28;;;;;;;0.70;0.70;;;29.40;70.20;;;;;;4193121;28;20078;-59
2023/09/10 11:10:48;;;;;;;1.48;0.60;;;29.50;68.60;;;;;;4189880;28;20051;-59
2023/09/10 11:13:10;;;;;;;0.65;0.60;;;30.00;69.10;;;;;;4191579;28;20055;-59
2023/09/10 11:15:30;;;;;;;1.25;0.60;;;30.30;68.60;;;;;;4190366;28;20040;-59
2023/09/10 11:17:50;;;;;;;0.60;0.60;;;30.60;69.60;;;;;;4189264;28;20371;-59
2023/09/10 11:20:10;;;;;;;0.80;0.70;;;31.40;73.70;;;;;;4188098;28;20402;-59
2023/09/10 11:23:09;;;;;;;1.17;0.60;;;31.40;69.40;;;;;;4188743;28;20051;-59
2023/09/10 11:25:30;;;;;;;0.60;0.60;;;31.90;67.80;;;;;;4119911;28;20061;-59
2023/09/10 11:27:52;;;;;;;1.45;0.60;;;31.60;64.90;;;;;;4122113;28;20097;-59
2023/09/10 11:30:14;;;;;;;0.90;0.60;;;31.60;66.70;;;;;;4121446;28;20106;-59
2023/09/10 11:32:34;;;;;;;0.60;0.60;;;31.40;65.30;;;;;;4122077;28;20110;-59
2023/09/10 11:35:15;;;;;;;0.60;0.60;;;31.00;64.80;;;;;;4121314;28;20101;-58
2023/09/10 11:37:36;;;;;;;0.70;0.70;;;30.70;67.50;;;;;;4119206;28;20146;-59
2023/09/10 11:40:00;;;;;;;0.60;0.60;;;30.50;66.60;;;;;;4122079;28;20049;-59
2023/09/10 11:42:20;;;;;;;1.42;0.60;;;30.60;67.40;;;;;;4121975;28;20046;-59
2023/09/10 11:44:39;;;;;;;0.77;0.60;;;31.00;65.80;;;;;;4121562;28;20054;-59
2023/09/10 11:46:59;;;;;;;0.60;0.60;;;31.40;69.50;;;;;;4121154;28;20050;-59
2023/09/10 11:49:21;;;;;;;0.70;0.60;;;31.60;66.20;;;;;;4120233;28;20169;-59
2023/09/10 11:51:46;;;;;;;0.50;0.50;;;31.70;65.50;;;;;;4121643;28;20106;-59
2023/09/10 11:54:06;;;;;;;1.27;1.05;;;32.30;65.70;;;;;;4121834;28;20046;-59
2023/09/10 11:56:27;;;;;;;0.95;0.60;;;31.70;63.90;;;;;;4164442;28;20128;-59
2023/09/10 11:58:48;;;;;;;1.75;0.60;;;31.40;62.90;;;;;;4188803;28;20136;-59
2023/09/10 12:01:09;;;;;;;0.65;0.65;;;30.90;65.90;;;;;;4192162;28;20043;-59
2023/09/10 12:03:32;;;;;;;0.57;0.57;;;31.50;65.10;;;;;;4190210;28;20144;-59
2023/09/10 12:05:52;;;;;;;0.60;0.60;;;31.20;63.00;;;;;;4191400;28;20055;-59
2023/09/10 12:08:12;;;;;;;1.65;0.60;;;31.30;67.90;;;;;;4192535;28;20117;-59
2023/09/10 12:10:33;;;;;;;0.60;0.60;;;30.90;63.80;;;;;;4192259;28;20200;-59
2023/09/10 12:12:53;;;;;;;1.13;0.70;;;31.00;65.00;;;;;;4189328;28;20400;-59
2023/09/10 12:15:14;;;;;;;0.63;0.50;;;31.70;64.30;;;;;;4194268;28;20244;-59
2023/09/10 12:17:34;;;;;;;1.02;0.50;;;32.10;63.10;;;;;;4192166;28;20087;-59